Time;durP1;ratioP1;P1;durP2;ratioP2;P2;SDS_P1;SDS_P2;PMS_P1;PMS_P2;Temp;Humidity;BMP_temperature;BMP_pressure;BME280_temperature;BME280_humidity;BME280_pressure;Samples;Min_cycle;Max_cycle;Signal;HPM_P1;HPM_P2
2021/03/05 00:01:58;;;;;;;14.43;6.53;;;;;;;0.37;83.15;99784.67;251739;1105;116013;-64
2021/03/05 00:07:02;;;;;;;9.77;5.07;;;;;;;;;;253106;1105;118226;-64
2021/03/05 00:12:08;;;;;;;9.40;4.45;;;;;;;0.09;82.62;99779.00;254469;1105;104156;-63
2021/03/05 00:17:11;;;;;;;5.03;3.75;;;;;;;0.12;81.41;99778.67;253017;1104;116243;-67
2021/03/05 00:22:15;;;;;;;3.47;2.42;;;;;;;0.08;81.93;99779.98;254724;1104;116754;-69
2021/03/05 00:27:18;;;;;;;8.85;6.05;;;;;;;0.16;83.28;99788.66;254534;1104;116389;-69
2021/03/05 00:32:22;;;;;;;3.62;2.80;;;;;;;0.07;83.09;99800.12;253966;1104;115936;-66
2021/03/05 00:37:27;;;;;;;6.60;3.70;;;;;;;0.05;83.85;99796.85;253433;1104;116334;-62
2021/03/05 00:42:31;;;;;;;9.33;4.62;;;;;;;0.03;84.49;99796.20;253066;1105;116926;-65
2021/03/05 00:47:36;;;;;;;5.45;4.40;;;;;;;-0.04;84.84;99800.48;253525;1105;116903;-67
2021/03/05 00:52:40;;;;;;;5.90;4.65;;;;;;;-0.01;84.86;99787.05;253084;1104;115983;-69
2021/03/05 00:57:44;;;;;;;7.12;4.10;;;;;;;0.06;85.04;99789.81;251816;1104;116433;-65
2021/03/05 01:02:47;;;;;;;4.00;3.55;;;;;;;-0.02;84.16;99786.23;253084;1104;116258;-62
2021/03/05 01:07:50;;;;;;;9.40;5.65;;;;;;;0.01;83.93;99785.06;252967;1105;115883;-66
2021/03/05 01:12:55;;;;;;;7.17;4.22;;;;;;;-0.01;83.65;99784.44;251756;1105;116253;-64
2021/03/05 01:18:00;;;;;;;8.55;4.95;;;;;;;-0.03;84.37;99786.40;251610;1105;118658;-63
2021/03/05 01:23:03;;;;;;;3.33;2.58;;;;;;;-0.13;83.68;99777.88;253309;1104;115376;-65
2021/03/05 01:28:07;;;;;;;4.92;3.33;;;;;;;-0.16;84.97;99779.03;251952;1105;116009;-62
2021/03/05 01:33:10;;;;;;;7.50;4.45;;;;;;;-0.19;83.36;99768.05;251846;1105;115878;-62
2021/03/05 01:38:13;;;;;;;7.40;4.17;;;;;;;-0.18;85.48;99780.99;251762;1104;115738;-66
2021/03/05 01:43:18;;;;;;;7.30;4.67;;;;;;;-0.22;84.90;99787.54;252452;1104;116104;-67
2021/03/05 01:48:22;;;;;;;7.40;4.65;;;;;;;-0.19;84.64;99776.73;252717;1104;115838;-65
2021/03/05 01:53:29;;;;;;;11.28;4.75;;;;;;;-0.14;83.94;99786.73;253293;1104;115127;-66
2021/03/05 01:58:33;;;;;;;5.62;3.67;;;;;;;-0.07;84.32;99792.95;251675;1105;118689;-63
2021/03/05 02:03:37;;;;;;;10.40;4.95;;;;;;;-0.09;84.29;99792.30;253773;1105;115402;-65
2021/03/05 02:08:40;;;;;;;9.58;4.35;;;;;;;-0.10;84.14;99793.28;253203;1105;116163;-64
2021/03/05 02:13:44;;;;;;;10.40;4.65;;;;;;;-0.09;82.85;99798.35;253434;1104;116132;-65
2021/03/05 02:19:16;;;;;;;16.42;6.97;;;;;;;-0.10;85.04;99801.14;254804;1105;115259;-66
2021/03/05 02:24:43;;;;;;;11.90;5.28;;;;;;;-0.15;84.94;99808.66;254354;1104;116028;-66
2021/03/05 02:30:10;;;;;;;8.90;5.45;;;;;;;-0.17;84.84;99813.25;254550;1104;115672;-66
2021/03/05 02:35:13;;;;;;;13.18;7.75;;;;;;;-0.17;84.92;99819.31;254741;1104;118085;-66
2021/03/05 02:40:34;;;;;;;9.58;6.05;;;;;;;-0.13;84.79;99822.42;254020;1104;116440;-66
2021/03/05 02:45:41;;;;;;;15.88;8.93;;;;;;;-0.09;85.01;99828.98;252557;1105;115386;-65
2021/03/05 02:50:52;;;;;;;15.40;8.75;;;;;;;-0.04;84.02;99829.31;253977;1105;116692;-64
2021/03/05 02:56:02;;;;;;;9.20;5.15;;;;;;;-0.08;84.11;99835.86;252720;1105;116093;-64
2021/03/05 03:01:09;;;;;;;7.53;5.33;;;;;;;-0.20;83.82;99839.77;251872;1105;116068;-67
2021/03/05 03:06:15;;;;;;;11.35;5.28;;;;;;;-0.14;83.87;99846.98;251840;1105;116138;-68
2021/03/05 03:11:20;;;;;;;2.92;2.17;;;;;;;-0.26;83.55;99856.13;252292;1105;116775;-66
2021/03/05 03:16:25;;;;;;;8.25;6.17;;;;;;;-0.28;83.47;99855.47;252701;1104;116228;-64
2021/03/05 03:21:29;;;;;;;7.78;4.62;;;;;;;-0.33;82.52;99869.08;251816;1105;116098;-65
2021/03/05 03:26:38;;;;;;;14.60;7.53;;;;;;;-0.34;83.77;99867.44;251561;1105;116348;-64
2021/03/05 03:31:45;;;;;;;9.40;5.63;;;;;;;-0.39;83.05;99883.63;251796;1105;115794;-65
2021/03/05 03:36:51;;;;;;;6.00;3.50;;;;;;;-0.46;84.14;99881.81;252744;1105;116138;-66
2021/03/05 03:41:56;;;;;;;8.17;3.67;;;;;;;-0.50;83.82;99880.48;251557;1105;115165;-66
2021/03/05 03:47:00;;;;;;;14.47;6.43;;;;;;;-0.41;83.73;99895.25;252491;1105;114632;-65
2021/03/05 03:52:13;;;;;;;10.48;5.80;;;;;;;-0.30;83.51;99894.92;252901;1105;114864;-65
2021/03/05 03:57:19;;;;;;;8.35;4.28;;;;;;;-0.37;82.59;99892.16;251750;1105;115687;-64
2021/03/05 04:02:29;;;;;;;4.37;2.83;;;;;;;-0.45;82.94;99894.74;253251;1105;114577;-66
2021/03/05 04:07:34;;;;;;;10.98;5.47;;;;;;;-0.35;83.26;99903.29;251847;1105;115520;-64
2021/03/05 04:12:38;;;;;;;13.18;5.15;;;;;;;-0.29;82.83;99903.60;252289;1104;114883;-68
2021/03/05 04:17:42;;;;;;;8.43;3.65;;;;;;;-0.45;83.00;99904.40;251760;1104;115612;-65
2021/03/05 04:22:47;;;;;;;8.10;5.30;;;;;;;-0.50;82.90;99907.49;253271;1104;115086;-65
2021/03/05 04:27:52;;;;;;;11.10;6.17;;;;;;;-0.50;82.71;99912.73;252223;1105;116732;-64
2021/03/05 04:32:56;;;;;;;8.63;5.92;;;;;;;-0.54;83.15;99915.82;251913;1105;116499;-64
2021/03/05 04:37:59;;;;;;;8.13;4.37;;;;;;;-0.59;82.62;99924.14;254775;1105;115636;-65
2021/03/05 04:43:03;;;;;;;6.55;1.98;;;;;;;-0.74;82.35;99925.73;255067;1103;117486;-67
2021/03/05 04:48:08;;;;;;;7.15;6.35;;;;;;;-0.72;82.64;99935.08;255043;1105;117000;-67
2021/03/05 04:53:12;;;;;;;4.42;2.35;;;;;;;-0.78;82.16;99932.27;254186;1105;116134;-66
2021/03/05 04:58:16;;;;;;;5.97;2.90;;;;;;;-0.86;82.81;99933.03;253535;1105;116302;-65
2021/03/05 05:03:19;;;;;;;9.58;6.03;;;;;;;-0.80;82.07;99936.83;254840;1104;115883;-65
2021/03/05 05:08:22;;;;;;;10.00;3.30;;;;;;;-0.92;82.16;99944.16;252693;1104;115929;-65
2021/03/05 05:13:26;;;;;;;5.15;2.75;;;;;;;-0.99;82.93;99948.36;252443;1105;116423;-65
2021/03/05 05:18:30;;;;;;;10.08;2.77;;;;;;;-1.02;82.32;99952.11;252700;1105;115969;-66
2021/03/05 05:23:34;;;;;;;8.80;3.47;;;;;;;-0.99;82.66;99961.44;251519;1105;115719;-64
2021/03/05 05:28:37;;;;;;;4.60;2.65;;;;;;;-1.00;83.32;99974.67;251748;1105;115621;-65
2021/03/05 05:33:40;;;;;;;10.30;3.60;;;;;;;-0.95;82.59;99980.27;251710;1105;116419;-65
2021/03/05 05:38:43;;;;;;;7.45;2.60;;;;;;;-0.91;81.83;99986.81;252915;1104;116035;-64
2021/03/05 05:43:46;;;;;;;3.80;2.02;;;;;;;-0.98;81.75;99991.87;252137;1105;115072;-65
2021/03/05 05:48:50;;;;;;;3.87;1.37;;;;;;;-1.09;81.44;99992.94;252165;1105;115810;-64
2021/03/05 05:54:00;;;;;;;4.12;1.82;;;;;;;-1.08;81.21;100002.42;253596;1105;116000;-65
2021/03/05 05:59:03;;;;;;;8.13;2.60;;;;;;;-1.09;82.08;100006.02;251890;1105;140214;-64
2021/03/05 06:04:07;;;;;;;1.37;1.10;;;;;;;-1.15;81.24;100009.23;252418;1105;117164;-65
2021/03/05 06:09:12;;;;;;;2.80;2.60;;;;;;;-1.12;81.69;100014.16;252461;1104;116670;-65
2021/03/05 06:14:15;;;;;;;6.12;2.52;;;;;;;-1.09;81.13;100016.48;251719;1105;116019;-64
2021/03/05 06:19:20;;;;;;;3.65;2.30;;;;;;;-1.08;80.58;100025.15;253417;1105;115170;-64
2021/03/05 06:24:23;;;;;;;3.30;1.85;;;;;;;-1.14;81.44;100037.03;253118;1105;115043;-65
2021/03/05 06:29:42;;;;;;;3.77;2.20;;;;;;;-1.13;81.20;100051.77;252980;1105;115349;-65
2021/03/05 06:34:54;;;;;;;10.50;3.00;;;;;;;-1.11;81.70;100062.08;252677;1105;116178;-65
2021/03/05 06:40:09;;;;;;;4.00;2.63;;;;;;;-1.13;81.45;100077.09;252860;1105;115488;-65
2021/03/05 06:45:14;;;;;;;5.97;2.95;;;;;;;-0.95;81.47;100083.14;253423;1105;115375;-65
2021/03/05 06:50:23;;;;;;;4.12;3.35;;;;;;;-0.78;79.05;100086.69;253339;1105;114902;-65
2021/03/05 06:55:27;;;;;;;11.57;4.55;;;;;;;-0.56;78.91;100090.59;252624;1105;115727;-64
2021/03/05 07:00:31;;;;;;;13.65;4.17;;;;;;;-0.47;78.47;100089.66;254271;1104;116578;-67
2021/03/05 07:05:53;;;;;;;8.33;3.83;;;;;;;-0.37;78.05;100106.10;254725;1104;115669;-67
2021/03/05 07:10:56;;;;;;;2.83;2.40;;;;;;;-0.52;76.19;100110.25;253936;1104;115228;-67
2021/03/05 07:15:59;;;;;;;8.00;3.90;;;;;;;-0.46;76.60;100113.09;254566;1105;116174;-68
2021/03/05 07:21:04;;;;;;;6.72;3.42;;;;;;;-0.19;75.80;100119.13;253521;1105;117091;-67
2021/03/05 07:26:07;;;;;;;2.27;2.05;;;;;;;-0.24;74.71;100121.38;252494;1105;116030;-66
2021/03/05 07:31:13;;;;;;;5.57;2.80;;;;;;;-0.32;74.78;100121.36;253505;1105;115235;-64
2021/03/05 07:36:18;;;;;;;7.08;3.30;;;;;;;-0.43;75.31;100132.91;253319;1105;115610;-65
2021/03/05 07:41:23;;;;;;;6.20;2.37;;;;;;;-0.40;73.87;100137.84;251878;1105;114885;-66
2021/03/05 07:46:28;;;;;;;3.87;2.25;;;;;;;-0.33;74.37;100145.91;252792;1105;115921;-65
2021/03/05 07:51:33;;;;;;;3.07;1.30;;;;;;;-0.33;74.36;100149.34;252329;1105;114835;-65
2021/03/05 07:56:45;;;;;;;2.95;2.00;;;;;;;-0.12;72.56;100146.34;252092;1103;115681;-64
2021/03/05 08:01:50;;;;;;;8.10;3.22;;;;;;;0.36;73.16;100156.21;252433;1104;115315;-65
2021/03/05 08:07:10;;;;;;;3.72;1.92;;;;;;;0.36;70.92;100156.21;253333;1104;114778;-65
2021/03/05 08:12:38;;;;;;;3.73;1.73;;;;;;;0.28;70.04;100170.13;253125;1105;115206;-65
2021/03/05 08:17:42;;;;;;;4.50;2.52;;;;;;;0.29;70.68;100176.20;251744;1105;114837;-64
2021/03/05 08:23:11;;;;;;;7.85;3.65;;;;;;;0.45;70.62;100180.67;251828;1105;114770;-64
2021/03/05 08:28:39;;;;;;;2.30;2.03;;;;;;;0.36;70.13;100173.74;252291;1105;115289;-64
2021/03/05 08:33:42;;;;;;;3.30;2.35;;;;;;;0.14;71.39;100175.14;252339;1105;115733;-65
2021/03/05 08:38:45;;;;;;;2.55;1.45;;;;;;;0.22;69.41;100180.42;252954;1105;115283;-65
2021/03/05 08:44:06;;;;;;;2.27;1.22;;;;;;;0.25;65.04;100180.11;252536;1105;114691;-68
2021/03/05 08:49:10;;;;;;;4.77;1.53;;;;;;;0.44;67.76;100189.52;251871;1105;114723;-64
2021/03/05 08:54:14;;;;;;;5.78;1.72;;;;;;;0.52;64.69;100185.13;254452;1105;114594;-67
2021/03/05 08:59:17;;;;;;;3.58;1.42;;;;;;;0.58;62.67;100194.17;252940;1105;114956;-67
2021/03/05 09:04:20;;;;;;;2.10;1.50;;;;;;;0.96;64.21;100190.14;253264;1105;115275;-68
2021/03/05 09:09:26;;;;;;;1.95;1.22;;;;;;;0.92;60.72;100205.39;254844;1105;115450;-67
2021/03/05 09:15:04;;;;;;;3.52;2.30;;;;;;;1.09;61.94;100205.44;253218;1105;115353;-67
2021/03/05 09:20:07;;;;;;;2.98;2.20;;;;;;;1.15;60.87;100204.79;252180;1105;114896;-70
2021/03/05 09:25:11;;;;;;;2.30;1.80;;;;;;;1.25;59.67;100213.31;252563;1105;115469;-66
2021/03/05 09:30:25;;;;;;;4.77;2.17;;;;;;;1.24;59.14;100217.75;252314;1105;116906;-64
2021/03/05 09:35:30;;;;;;;2.50;0.97;;;;;;;1.09;56.39;100221.19;251646;1105;206403;-64
2021/03/05 09:40:34;;;;;;;4.93;1.20;;;;;;;1.33;53.67;100218.58;252667;1105;117153;-65
2021/03/05 09:45:43;;;;;;;1.80;1.37;;;;;;;1.54;51.83;100226.78;251506;1105;194170;-65
2021/03/05 09:50:57;;;;;;;1.15;1.02;;;;;;;1.73;55.30;100230.08;251387;1105;116449;-65
2021/03/05 09:56:06;;;;;;;3.25;2.12;;;;;;;2.08;51.95;100213.11;252093;1105;136081;-64
2021/03/05 10:01:13;;;;;;;0.70;0.70;;;;;;;2.20;50.74;100228.34;251468;1105;115660;-65
2021/03/05 10:06:17;;;;;;;0.93;0.87;;;;;;;2.10;46.79;100235.62;251862;1105;116811;-64
2021/03/05 10:11:36;;;;;;;0.97;0.77;;;;;;;2.31;48.02;100248.22;251626;1105;116160;-67
2021/03/05 10:16:42;;;;;;;0.95;0.60;;;;;;;2.60;41.91;100250.26;251649;1105;117049;-64
2021/03/05 10:21:48;;;;;;;0.50;0.47;;;;;;;2.57;44.41;100258.48;251595;1105;116452;-64
2021/03/05 10:27:19;;;;;;;0.37;0.37;;;;;;;2.56;46.97;100283.16;251316;1104;115009;-64
2021/03/05 10:32:33;;;;;;;0.40;0.40;;;;;;;2.75;43.41;100269.62;253269;1104;114602;-64
2021/03/05 10:37:39;;;;;;;1.35;0.50;;;;;;;3.01;44.42;100278.05;252110;1105;116597;-64
2021/03/05 10:42:43;;;;;;;2.10;1.35;;;;;;;2.61;46.58;100289.56;253819;1105;115092;-65
2021/03/05 10:47:46;;;;;;;2.95;0.80;;;;;;;2.43;48.43;100306.58;252222;1105;114947;-68
2021/03/05 10:52:49;;;;;;;1.92;1.15;;;;;;;2.56;51.83;100296.32;252712;1105;114674;-66
2021/03/05 10:57:52;;;;;;;1.42;1.20;;;;;;;2.34;49.25;100301.32;253663;1104;114769;-67
2021/03/05 11:02:57;;;;;;;1.12;0.88;;;;;;;2.58;50.20;100310.14;254688;1105;114752;-67
2021/03/05 11:08:00;;;;;;;0.82;0.70;;;;;;;2.98;48.36;100306.55;254730;1104;114590;-66
2021/03/05 11:13:03;;;;;;;0.60;0.50;;;;;;;3.24;45.25;100299.16;254398;1105;115478;-68
2021/03/05 11:18:08;;;;;;;3.95;1.05;;;;;;;3.35;44.84;100304.05;254746;1104;115340;-67
2021/03/05 11:23:12;;;;;;;0.45;0.45;;;;;;;2.87;46.72;100315.63;254557;1104;115577;-67
2021/03/05 11:28:15;;;;;;;3.12;0.90;;;;;;;3.04;50.82;100309.31;254523;1104;115013;-66
2021/03/05 11:33:19;;;;;;;1.57;1.47;;;;;;;2.82;54.78;100317.12;252573;1105;115914;-66
2021/03/05 11:38:22;;;;;;;2.60;1.72;;;;;;;2.74;55.01;100325.90;252697;1104;116238;-67
2021/03/05 11:43:26;;;;;;;2.15;0.80;;;;;;;2.44;51.29;100324.00;252759;1104;115489;-67
2021/03/05 11:48:30;;;;;;;1.72;0.90;;;;;;;2.30;53.58;100323.69;251550;1105;115696;-66
2021/03/05 11:53:35;;;;;;;3.75;2.08;;;;;;;2.32;54.19;100323.52;252679;1104;116603;-66
2021/03/05 11:58:38;;;;;;;2.70;2.23;;;;;;;2.31;53.66;100327.14;251503;1105;115992;-64
2021/03/05 12:03:42;;;;;;;4.17;1.50;;;;;;;2.33;54.53;100331.25;251589;1105;116746;-64
2021/03/05 12:08:45;;;;;;;3.37;1.25;;;;;;;2.49;53.88;100340.09;252353;1105;117643;-64
2021/03/05 12:13:49;;;;;;;0.70;0.70;;;;;;;2.57;50.73;100329.55;252258;1105;116501;-64
2021/03/05 12:18:52;;;;;;;1.97;1.20;;;;;;;2.62;50.14;100335.13;251857;1105;116362;-64
2021/03/05 12:23:55;;;;;;;1.25;0.70;;;;;;;3.16;48.66;100336.08;251761;1105;116028;-65
2021/03/05 12:28:59;;;;;;;1.65;0.70;;;;;;;3.69;49.30;100332.63;252011;1105;115318;-64
2021/03/05 12:34:03;;;;;;;2.67;1.17;;;;;;;3.76;48.41;100343.30;251628;1105;116535;-64
2021/03/05 12:39:06;;;;;;;2.85;2.62;;;;;;;3.72;48.30;100353.37;253446;1105;115465;-66
2021/03/05 12:44:09;;;;;;;1.37;1.27;;;;;;;3.71;48.37;100356.18;253673;1104;116408;-66
2021/03/05 12:49:12;;;;;;;2.83;1.80;;;;;;;3.61;50.25;100366.97;251677;1105;117238;-66
2021/03/05 12:54:15;;;;;;;3.10;1.37;;;;;;;3.55;50.70;100372.94;251539;1105;117634;-70
2021/03/05 12:59:19;;;;;;;2.33;1.60;;;;;;;3.61;50.77;100371.42;252704;1105;116640;-67
2021/03/05 13:04:22;;;;;;;1.32;1.00;;;;;;;3.54;52.15;100379.20;251907;1105;116997;-66
2021/03/05 13:09:25;;;;;;;1.47;1.37;;;;;;;3.51;50.51;100386.63;254773;1104;115105;-67
2021/03/05 13:14:27;;;;;;;4.95;1.77;;;;;;;3.33;52.27;100389.53;254894;1104;116024;-67
2021/03/05 13:19:31;;;;;;;4.95;2.27;;;;;;;3.38;50.76;100395.91;253941;1105;116055;-66
2021/03/05 13:24:35;;;;;;;1.30;1.15;;;;;;;3.49;47.56;100388.62;252433;1105;116999;-66
2021/03/05 13:29:37;;;;;;;1.67;1.12;;;;;;;3.41;49.66;100393.92;251568;1105;116521;-66
2021/03/05 13:34:40;;;;;;;4.05;2.05;;;;;;;3.25;51.43;100393.02;252138;1105;115785;-67
2021/03/05 13:39:43;;;;;;;1.32;1.22;;;;;;;2.78;55.56;100419.31;252392;1104;116612;-66
2021/03/05 13:44:46;;;;;;;3.65;2.30;;;;;;;2.61;58.82;100433.51;251604;1105;116222;-66
2021/03/05 13:49:51;;;;;;;5.72;2.12;;;;;;;2.36;59.38;100433.53;252897;1105;115840;-67
2021/03/05 13:54:55;;;;;;;3.10;2.90;;;;;;;2.34;58.11;100432.87;251783;1105;116971;-70
2021/03/05 13:59:58;;;;;;;3.57;2.97;;;;;;;2.30;59.99;100434.17;251553;1105;115984;-67
2021/03/05 14:05:02;;;;;;;2.35;2.15;;;;;;;2.34;60.16;100435.50;251949;1105;116353;-68
2021/03/05 14:10:06;;;;;;;4.37;3.42;;;;;;;2.38;60.60;100440.44;252075;1105;118567;-65
2021/03/05 14:15:10;;;;;;;8.25;7.55;;;;;;;2.36;58.49;100444.05;251722;1105;116647;-63
2021/03/05 14:20:14;;;;;;;3.20;2.30;;;;;;;2.54;54.03;100430.71;251760;1105;117124;-63
2021/03/05 14:25:17;;;;;;;5.45;3.42;;;;;;;2.67;57.23;100443.38;252035;1105;174005;-62
2021/03/05 14:30:21;;;;;;;4.20;2.42;;;;;;;2.89;54.05;100447.13;252929;1105;116745;-63
2021/03/05 14:35:24;;;;;;;5.37;3.35;;;;;;;2.92;53.59;100444.16;253391;1104;116017;-63
2021/03/05 14:40:28;;;;;;;2.27;1.77;;;;;;;3.11;53.21;100449.03;253392;1104;117523;-64
2021/03/05 14:45:32;;;;;;;2.67;1.87;;;;;;;3.09;50.88;100451.02;251849;1105;117697;-63
2021/03/05 14:50:35;;;;;;;2.47;2.27;;;;;;;3.22;50.81;100445.23;252496;1105;115284;-66
2021/03/05 14:55:38;;;;;;;2.35;1.50;;;;;;;3.09;49.36;100458.91;253797;1105;114898;-66
2021/03/05 15:00:44;;;;;;;1.10;0.90;;;;;;;2.74;50.08;100452.27;252051;1105;115068;-66
2021/03/05 15:05:50;;;;;;;3.20;2.17;;;;;;;2.72;50.80;100458.68;252897;1104;116522;-67
2021/03/05 15:10:58;;;;;;;2.83;2.00;;;;;;;2.82;51.93;100462.76;252856;1104;117394;-64
2021/03/05 15:16:02;;;;;;;2.08;1.75;;;;;;;2.64;46.76;100464.77;253527;1103;116308;-66
2021/03/05 15:21:07;;;;;;;3.30;1.93;;;;;;;2.73;47.37;100468.22;254058;1105;115249;-66
2021/03/05 15:26:11;;;;;;;2.75;1.30;;;;;;;2.67;46.71;100469.70;254449;1104;116063;-69
2021/03/05 15:31:15;;;;;;;0.70;0.70;;;;;;;2.32;45.90;100476.93;254751;1104;115536;-68
2021/03/05 15:36:19;;;;;;;3.27;1.87;;;;;;;2.28;48.14;100486.13;254630;1104;115237;-66
2021/03/05 15:41:23;;;;;;;3.52;1.80;;;;;;;1.98;48.10;100503.34;253361;1105;115242;-70
2021/03/05 15:46:28;;;;;;;5.50;2.83;;;;;;;1.86;46.28;100504.60;253636;1105;114755;-65
2021/03/05 15:51:33;;;;;;;2.60;1.45;;;;;;;1.73;48.13;100524.45;251842;1104;116263;-62
2021/03/05 15:56:37;;;;;;;4.08;3.67;;;;;;;1.67;47.39;100531.98;252584;1104;114734;-62
2021/03/05 16:01:41;;;;;;;2.50;2.30;;;;;;;1.51;48.29;100541.61;252661;1103;115446;-63
2021/03/05 16:06:49;;;;;;;3.77;2.23;;;;;;;1.32;49.57;100551.34;252445;1105;115733;-64
2021/03/05 16:11:54;;;;;;;4.90;2.27;;;;;;;1.23;51.18;100560.13;253011;1105;116332;-62
2021/03/05 16:17:01;;;;;;;6.17;3.17;;;;;;;1.18;52.41;100562.42;251896;1105;115614;-62
2021/03/05 16:22:06;;;;;;;3.80;2.33;;;;;;;1.13;52.21;100584.86;251854;1105;116882;-63
2021/03/05 16:27:10;;;;;;;2.90;2.60;;;;;;;0.99;53.65;100597.55;253080;1104;117223;-63
2021/03/05 16:32:14;;;;;;;2.70;1.10;;;;;;;0.81;57.43;100604.62;252321;1105;114956;-63
2021/03/05 16:37:19;;;;;;;4.10;2.42;;;;;;;0.72;59.80;100616.02;253007;1105;118167;-64
2021/03/05 16:42:24;;;;;;;2.52;1.77;;;;;;;0.65;62.79;100620.20;252901;1105;117518;-64
2021/03/05 16:47:29;;;;;;;6.28;4.28;;;;;;;0.60;62.97;100636.42;252343;1104;116473;-65
2021/03/05 16:52:35;;;;;;;7.58;5.47;;;;;;;0.46;64.32;100638.70;251352;1104;115864;-68
2021/03/05 16:57:38;;;;;;;10.27;4.73;;;;;;;0.39;62.87;100658.62;252823;1105;117938;-64
2021/03/05 17:02:41;;;;;;;13.20;5.90;;;;;;;0.29;63.64;100658.69;253417;1104;114826;-64
2021/03/05 17:07:44;;;;;;;15.65;8.93;;;;;;;0.19;65.10;100666.59;251600;1105;115886;-67
2021/03/05 17:12:47;;;;;;;21.37;11.05;;;;;;;0.07;66.05;100666.91;252796;1104;115863;-68
2021/03/05 17:17:51;;;;;;;13.88;8.20;;;;;;;-0.13;66.36;100684.52;253051;1105;115749;-65
2021/03/05 17:22:54;;;;;;;16.73;8.65;;;;;;;-0.41;66.45;100681.83;254285;1105;117426;-65
2021/03/05 17:27:57;;;;;;;44.40;18.70;;;;;;;-0.62;68.69;100694.27;253239;1105;115148;-67
2021/03/05 17:33:00;;;;;;;45.33;21.42;;;;;;;-0.76;68.41;100702.53;254268;1104;117629;-66
2021/03/05 17:38:04;;;;;;;28.07;15.53;;;;;;;-0.82;70.57;100701.28;254762;1104;116088;-67
2021/03/05 17:43:07;;;;;;;16.77;7.95;;;;;;;-0.88;70.59;100706.24;254469;1104;115259;-67
2021/03/05 17:48:10;;;;;;;6.37;4.58;;;;;;;-0.91;71.37;100715.19;253366;1104;115557;-67
2021/03/05 17:53:17;;;;;;;8.45;4.53;;;;;;;-0.86;71.03;100722.64;252734;1104;116191;-66
2021/03/05 17:58:20;;;;;;;6.72;4.62;;;;;;;-0.94;72.22;100715.49;252644;1105;116884;-67
2021/03/05 18:03:25;;;;;;;10.58;5.00;;;;;;;-1.05;71.99;100721.67;252603;1104;115898;-68
2021/03/05 18:08:43;;;;;;;9.80;5.80;;;;;;;-1.15;72.02;100733.90;251668;1105;116510;-66
2021/03/05 18:13:49;;;;;;;12.70;5.65;;;;;;;-1.25;72.47;100730.45;252094;1105;117510;-64
2021/03/05 18:18:52;;;;;;;10.53;6.12;;;;;;;-1.33;73.64;100747.77;251949;1105;116163;-64
2021/03/05 18:23:57;;;;;;;13.35;8.10;;;;;;;-1.33;73.03;100739.92;252296;1105;116291;-64
2021/03/05 18:29:04;;;;;;;16.57;9.08;;;;;;;-1.27;73.89;100750.69;252352;1104;116362;-65
2021/03/05 18:34:10;;;;;;;18.17;8.78;;;;;;;-1.25;74.75;100755.79;251490;1105;116458;-64
2021/03/05 18:39:15;;;;;;;24.90;9.33;;;;;;;-1.21;75.03;100759.77;252338;1104;116788;-64
2021/03/05 18:44:19;;;;;;;73.42;27.80;;;;;;;-1.17;75.23;100761.98;252330;1105;116422;-64
2021/03/05 18:49:23;;;;;;;21.65;12.23;;;;;;;-1.09;75.28;100750.85;252422;1105;116449;-65
2021/03/05 18:54:29;;;;;;;26.60;12.98;;;;;;;-1.08;74.39;100766.42;253017;1104;116349;-65
2021/03/05 18:59:32;;;;;;;15.23;8.03;;;;;;;-1.04;74.29;100754.72;252064;1105;115981;-65
2021/03/05 19:04:35;;;;;;;20.77;10.00;;;;;;;-1.01;74.37;100766.72;252573;1105;116523;-66
2021/03/05 19:09:39;;;;;;;29.13;10.87;;;;;;;-0.98;74.11;100781.33;253148;1104;117192;-65
2021/03/05 19:14:43;;;;;;;25.32;9.83;;;;;;;-0.97;73.80;100775.13;252047;1105;116716;-65
2021/03/05 19:19:48;;;;;;;17.98;7.90;;;;;;;-1.03;73.68;100793.02;251670;1105;115535;-67
2021/03/05 19:24:53;;;;;;;17.93;8.67;;;;;;;-0.98;73.74;100794.41;254142;1105;115142;-66
2021/03/05 19:29:57;;;;;;;16.32;7.20;;;;;;;-0.99;73.68;100801.43;254604;1105;136727;-63
2021/03/05 19:35:02;;;;;;;13.50;7.72;;;;;;;-1.03;73.46;100806.10;254902;1105;115049;-62
2021/03/05 19:40:09;;;;;;;8.53;4.12;;;;;;;-1.13;74.13;100807.02;254683;1104;115838;-64
2021/03/05 19:45:12;;;;;;;13.13;7.03;;;;;;;-1.17;74.21;100816.09;254487;1104;116615;-65
2021/03/05 19:50:15;;;;;;;10.08;6.08;;;;;;;-1.21;73.61;100819.94;254822;1104;115164;-63
2021/03/05 19:55:17;;;;;;;8.20;5.62;;;;;;;-1.23;73.37;100825.33;253635;1104;116404;-64
2021/03/05 20:00:22;;;;;;;14.73;7.55;;;;;;;-1.20;73.53;100825.03;252565;1103;116133;-66
2021/03/05 20:05:27;;;;;;;12.95;6.75;;;;;;;-1.32;73.11;100830.52;254030;1105;115789;-63
2021/03/05 20:10:30;;;;;;;11.10;6.10;;;;;;;-1.41;73.56;100842.58;253731;1104;115581;-64
2021/03/05 20:15:34;;;;;;;13.10;7.65;;;;;;;-1.43;73.90;100844.49;253484;1104;116109;-64
2021/03/05 20:20:38;;;;;;;12.13;6.73;;;;;;;-1.47;73.95;100837.87;253515;1105;116405;-64
2021/03/05 20:25:45;;;;;;;11.40;5.95;;;;;;;-1.51;74.62;100846.92;252181;1105;116726;-65
2021/03/05 20:30:48;;;;;;;12.60;6.28;;;;;;;-1.54;74.92;100847.21;251634;1105;116180;-61
2021/03/05 20:35:53;;;;;;;13.45;8.53;;;;;;;-1.58;75.70;100856.27;253194;1105;116898;-62
2021/03/05 20:40:57;;;;;;;17.42;7.67;;;;;;;-1.64;76.82;100854.99;252511;1105;116154;-63
2021/03/05 20:46:00;;;;;;;21.35;8.80;;;;;;;-1.63;75.64;100858.44;251995;1105;118598;-63
2021/03/05 20:51:03;;;;;;;14.90;8.10;;;;;;;-1.68;77.92;100850.14;253138;1104;116558;-64
2021/03/05 20:56:07;;;;;;;12.15;8.43;;;;;;;-1.70;76.71;100858.11;252454;1105;115616;-62
2021/03/05 21:01:10;;;;;;;11.63;6.22;;;;;;;-1.75;77.83;100860.28;252798;1104;115022;-64
2021/03/05 21:06:14;;;;;;;12.30;7.90;;;;;;;-1.72;78.04;100866.08;252416;1105;116066;-63
2021/03/05 21:11:19;;;;;;;13.00;6.85;;;;;;;-1.71;77.59;100865.13;252864;1105;115656;-62
2021/03/05 21:16:23;;;;;;;18.32;9.18;;;;;;;-1.70;76.97;100873.80;253053;1104;115794;-62
2021/03/05 21:21:27;;;;;;;14.63;9.50;;;;;;;-1.74;77.00;100872.39;252885;1104;115875;-62
2021/03/05 21:26:31;;;;;;;17.37;8.63;;;;;;;-1.72;76.54;100868.70;252557;1105;116228;-62
2021/03/05 21:31:36;;;;;;;19.23;9.28;;;;;;;-1.72;75.99;100873.92;253465;1104;115598;-64
2021/03/05 21:36:39;;;;;;;17.25;8.63;;;;;;;-1.75;76.87;100887.25;254902;1104;115018;-63
2021/03/05 21:41:44;;;;;;;22.15;10.63;;;;;;;-1.75;76.57;100897.70;252619;1104;115729;-63
2021/03/05 21:46:48;;;;;;;14.93;9.28;;;;;;;-1.81;78.24;100903.43;254818;1103;115957;-65
2021/03/05 21:51:52;;;;;;;22.17;11.60;;;;;;;-1.83;76.11;100889.66;254736;1105;116126;-63
2021/03/05 21:56:56;;;;;;;19.55;9.93;;;;;;;-1.81;77.86;100907.83;254836;1105;116433;-64
2021/03/05 22:01:59;;;;;;;27.82;13.32;;;;;;;-1.80;77.73;100899.86;254773;1104;116302;-66
2021/03/05 22:07:02;;;;;;;41.10;15.83;;;;;;;-1.82;76.60;100909.61;254669;1104;116273;-63
2021/03/05 22:12:06;;;;;;;36.55;15.45;;;;;;;-1.86;77.64;100915.24;254571;1105;116869;-64
2021/03/05 22:17:10;;;;;;;30.95;11.12;;;;;;;-1.90;77.33;100912.05;253241;1105;117168;-63
2021/03/05 22:22:18;;;;;;;18.40;9.48;;;;;;;-1.91;77.00;100920.02;252918;1105;115270;-65
2021/03/05 22:27:21;;;;;;;;;;;;;;;-1.91;77.40;100927.86;252591;1105;114860;-66
2021/03/05 22:32:24;;;;;;;27.07;14.50;;;;;;;-1.98;76.58;100927.52;253978;1104;104264;-65
2021/03/05 22:37:27;;;;;;;59.18;25.27;;;;;;;-2.01;77.07;100927.77;252657;1105;116036;-63
2021/03/05 22:42:30;;;;;;;45.40;20.32;;;;;;;-1.99;76.18;100933.70;252756;1105;115772;-65
2021/03/05 22:47:33;;;;;;;34.33;15.23;;;;;;;-2.00;76.81;100945.10;252681;1105;116557;-64
2021/03/05 22:52:38;;;;;;;29.77;13.77;;;;;;;-2.00;76.20;100947.72;252552;1105;115279;-64
2021/03/05 22:57:42;;;;;;;30.43;13.80;;;;;;;-1.99;74.73;100954.59;252213;1105;116080;-62
2021/03/05 23:02:46;;;;;;;19.90;9.28;;;;;;;-2.02;75.92;100960.07;252383;1104;116012;-62
2021/03/05 23:07:50;;;;;;;25.85;11.30;;;;;;;-2.06;75.49;100961.27;253023;1105;116140;-66
2021/03/05 23:12:58;;;;;;;28.10;15.43;;;;;;;-2.09;75.05;100970.17;251247;1105;210792;-64